Gulfport, Mississippi
Current Conditions -  °F | °C
As of 6:53 PM on Friday 24 Oct 2014 (Local Time) from KGPT Reporting Station
Clear Clear  
Wind Chill: 65°   Ceiling: Unl
Heat Index: 65°   Visibility: 10mi
Dew Point: 50°   Wind: 0mph
Humidity: 58%   Direction: NA
Pressure: 30.04"   Gusts: NA
Location:  30.38°N, 89.09°W
Report Text: KGPT 242353Z 00000KT 10SM CLR 18/10 A3004 RMK AO2 SLP172 T01830100 10256 20183 53009
Loading
Personal Weather Stations






























Interactive Weather Map
Tropical Storm Tracking
New forecast layout! Learn more

10-Day Weather Forecast

Advertisements
Track Severe Weather on mobile